createdAt,value
2023-04-11T00:03:53.157Z,96100.00
2023-04-11T00:07:58.665Z,96095.00
2023-04-11T00:12:10.237Z,96093.00
2023-04-11T00:16:13.052Z,96074.00
2023-04-11T00:20:19.073Z,96055.00
2023-04-11T00:24:21.879Z,96029.00
2023-04-11T00:28:28.764Z,96024.00
2023-04-11T00:32:39.034Z,96007.00
2023-04-11T00:36:42.198Z,96007.00
2023-04-11T00:40:46.388Z,95983.00
2023-04-11T00:44:51.007Z,96011.00
2023-04-11T00:48:54.453Z,96029.00
2023-04-11T00:52:59.944Z,96038.00
2023-04-11T00:57:04.832Z,96067.00
2023-04-11T01:01:10.428Z,96078.00
2023-04-11T01:05:15.042Z,96066.00
2023-04-11T01:09:20.438Z,96048.00
2023-04-11T01:13:23.405Z,96023.00
2023-04-11T01:17:28.041Z,96006.00
2023-04-11T01:21:31.910Z,96010.00
2023-04-11T01:25:38.453Z,96007.00
2023-04-11T01:29:41.263Z,95997.00
2023-04-11T01:33:46.508Z,95988.00
2023-04-11T01:37:49.360Z,95984.00
2023-04-11T01:41:56.986Z,95966.00
2023-04-11T01:46:00.757Z,95961.00
2023-04-11T01:50:03.544Z,95954.00
2023-04-11T01:54:08.021Z,95950.00
2023-04-11T01:58:13.964Z,95948.00
2023-04-11T02:02:17.113Z,95952.00
2023-04-11T02:06:21.651Z,95952.00
2023-04-11T02:10:24.482Z,95936.00
2023-04-11T02:14:29.886Z,95919.00
2023-04-11T02:18:33.872Z,95927.00
2023-04-11T02:22:37.852Z,95920.00
2023-04-11T02:26:41.490Z,95908.00
2023-04-11T02:30:47.143Z,95916.00
2023-04-11T02:34:54.032Z,95933.00
2023-04-11T02:38:57.264Z,95948.00
2023-04-11T02:43:03.139Z,95941.00
2023-04-11T02:47:09.926Z,95930.00
2023-04-11T02:51:13.348Z,95936.00
2023-04-11T02:55:17.767Z,95926.00
2023-04-11T02:59:21.464Z,95913.00
2023-04-11T03:03:28.159Z,95911.00
2023-04-11T03:07:31.825Z,95896.00
2023-04-11T03:11:34.617Z,95906.00
2023-04-11T03:15:40.679Z,95905.00
2023-04-11T03:19:46.860Z,95898.00
2023-04-11T03:23:52.476Z,95893.00
2023-04-11T03:27:55.270Z,95894.00
2023-04-11T03:31:58.068Z,95870.00
2023-04-11T03:36:02.599Z,95853.00
2023-04-11T03:40:08.574Z,95849.00
2023-04-11T03:44:16.269Z,95854.00
2023-04-11T03:48:21.560Z,95850.00
2023-04-11T03:52:25.988Z,95849.00
2023-04-11T03:56:29.271Z,95837.00
2023-04-11T04:00:34.580Z,95839.00
2023-04-11T04:04:40.773Z,95833.00
2023-04-11T04:08:47.558Z,95841.00
2023-04-11T04:12:50.905Z,95832.00
2023-04-11T04:16:53.790Z,95832.00
2023-04-11T04:20:56.656Z,95827.00
2023-04-11T04:25:01.082Z,95834.00
2023-04-11T04:29:05.695Z,95819.00
2023-04-11T04:33:12.419Z,95824.00
2023-04-11T04:37:23.843Z,95807.00
2023-04-11T04:41:36.293Z,95800.00
2023-04-11T04:45:42.037Z,95789.00
2023-04-11T04:49:58.189Z,95790.00
2023-04-11T04:54:04.969Z,95787.00
2023-04-11T04:58:09.162Z,95789.00
2023-04-11T05:02:14.003Z,95794.00
2023-04-11T05:06:18.802Z,95784.00
2023-04-11T05:10:22.785Z,95792.00
2023-04-11T05:14:27.906Z,95816.00
2023-04-11T05:18:31.109Z,95846.00
2023-04-11T05:22:34.784Z,95849.00
2023-04-11T05:26:38.056Z,95849.00
2023-04-11T05:30:43.014Z,95844.00
2023-04-11T05:34:57.303Z,95837.00
2023-04-11T05:39:05.995Z,95817.00
2023-04-11T05:43:14.348Z,95808.00
2023-04-11T05:47:18.612Z,95811.00
2023-04-11T05:51:26.121Z,95828.00
2023-04-11T05:55:29.243Z,95818.00
2023-04-11T05:59:33.814Z,95824.00
2023-04-11T06:03:40.424Z,95830.00
2023-04-11T06:07:48.853Z,95815.00
2023-04-11T06:11:51.681Z,95828.00
2023-04-11T06:15:54.582Z,95828.00
2023-04-11T06:20:00.863Z,95824.00
2023-04-11T06:24:06.824Z,95826.00
2023-04-11T06:28:12.847Z,95824.00
2023-04-11T06:32:16.377Z,95831.00
2023-04-11T06:36:20.606Z,95840.00
2023-04-11T06:40:23.481Z,95853.00
2023-04-11T06:44:26.389Z,95856.00
2023-04-11T06:48:29.250Z,95863.00
2023-04-11T06:52:37.746Z,95866.00
2023-04-11T06:56:40.936Z,95857.00
2023-04-11T07:00:44.148Z,95866.00
2023-04-11T07:04:50.517Z,95876.00
2023-04-11T07:08:55.985Z,95896.00
2023-04-11T07:12:58.748Z,95898.00
2023-04-11T07:17:03.255Z,95912.00
2023-04-11T07:21:10.909Z,95912.00
2023-04-11T07:25:17.433Z,95926.00
2023-04-11T07:29:20.435Z,95929.00
2023-04-11T07:33:23.288Z,95940.00
2023-04-11T07:37:29.864Z,95929.00
2023-04-11T07:41:38.304Z,95952.00
2023-04-11T07:45:41.627Z,95965.00
2023-04-11T07:49:45.651Z,95974.00
2023-04-11T07:53:48.467Z,95974.00
2023-04-11T07:57:52.807Z,95977.00
2023-04-11T08:02:04.406Z,95973.00
2023-04-11T08:06:08.827Z,95987.00
2023-04-11T08:10:11.793Z,95995.00
2023-04-11T08:14:18.284Z,96014.00
2023-04-11T08:18:24.448Z,96020.00
2023-04-11T08:22:29.739Z,96009.00
2023-04-11T08:26:35.475Z,95995.00
2023-04-11T08:30:41.749Z,95973.00
2023-04-11T08:34:44.806Z,95955.00
2023-04-11T08:38:47.737Z,95932.00
2023-04-11T08:42:52.744Z,95985.00
2023-04-11T08:46:58.902Z,95994.00
2023-04-11T08:51:01.863Z,95999.00
2023-04-11T08:55:05.268Z,96001.00
2023-04-11T08:59:08.047Z,95993.00
2023-04-11T09:03:13.568Z,96007.00
2023-04-11T09:07:17.423Z,95994.00
2023-04-11T09:11:20.804Z,95997.00
2023-04-11T09:15:28.046Z,96004.00
2023-04-11T09:19:33.741Z,96008.00
2023-04-11T09:23:39.787Z,95998.00
2023-04-11T09:27:45.199Z,95998.00
2023-04-11T09:31:48.002Z,96011.00
2023-04-11T09:35:53.828Z,96011.00
2023-04-11T09:40:00.282Z,96011.00
2023-04-11T09:44:03.883Z,96005.00
2023-04-11T09:48:06.953Z,95996.00
2023-04-11T09:52:21.778Z,96002.00
2023-04-11T09:56:27.546Z,95991.00
2023-04-11T10:00:32.263Z,95985.00
2023-04-11T10:04:35.638Z,95994.00
2023-04-11T10:08:45.757Z,95998.00
2023-04-11T10:12:50.848Z,95986.00
2023-04-11T10:17:27.326Z,96002.00
2023-04-11T10:21:43.838Z,95987.00
2023-04-11T10:26:04.440Z,95998.00
2023-04-11T10:30:12.491Z,95990.00
2023-04-11T10:34:19.468Z,95995.00
2023-04-11T10:38:49.746Z,95993.00
2023-04-11T10:42:54.152Z,96004.00
2023-04-11T10:46:57.044Z,96002.00
2023-04-11T10:50:59.982Z,96005.00
2023-04-11T10:55:17.672Z,96001.00
2023-04-11T10:59:53.755Z,96011.00
2023-04-11T11:04:07.241Z,96016.00
2023-04-11T11:08:10.859Z,96014.00
2023-04-11T11:12:15.353Z,96018.00
2023-04-11T11:16:19.542Z,96024.00
2023-04-11T11:20:24.262Z,96021.00
2023-04-11T11:24:27.376Z,96015.00
2023-04-11T11:28:30.447Z,96015.00
2023-04-11T11:32:33.244Z,96018.00
2023-04-11T11:36:42.176Z,96011.00
2023-04-11T11:40:46.792Z,96011.00
2023-04-11T11:44:49.927Z,96010.00
2023-04-11T11:49:03.644Z,96010.00
2023-04-11T11:53:15.709Z,96002.00
2023-04-11T11:57:23.867Z,96010.00
2023-04-11T12:01:29.387Z,96019.00
2023-04-11T12:05:33.587Z,96060.00
2023-04-11T12:09:41.445Z,96025.00
2023-04-11T12:13:46.136Z,96012.00
2023-04-11T12:17:53.518Z,96022.00
2023-04-11T12:21:56.453Z,96017.00
2023-04-11T12:26:01.052Z,96049.00
2023-04-11T12:30:04.384Z,96043.00
2023-04-11T12:34:12.657Z,96045.00
2023-04-11T12:38:17.745Z,96023.00
2023-04-11T12:42:27.801Z,96015.00
2023-04-11T12:46:30.678Z,96011.00
2023-04-11T12:50:41.942Z,96015.00
2023-04-11T12:54:47.468Z,96028.00
2023-04-11T12:58:53.617Z,96028.00
2023-04-11T13:02:57.996Z,96011.00
2023-04-11T13:07:04.784Z,96012.00
2023-04-11T13:11:08.196Z,96013.00
2023-04-11T13:15:15.267Z,96020.00
2023-04-11T13:19:19.662Z,96008.00
2023-04-11T13:23:22.436Z,96039.00
2023-04-11T13:27:26.457Z,96055.00
2023-04-11T13:31:35.058Z,96047.00
2023-04-11T13:35:43.205Z,96060.00
2023-04-11T13:39:46.076Z,96058.00
2023-04-11T13:43:49.242Z,96068.00
2023-04-11T13:47:55.287Z,96069.00
2023-04-11T13:52:02.305Z,96076.00
2023-04-11T13:56:08.653Z,96082.00
2023-04-11T14:00:15.890Z,96117.00
2023-04-11T14:04:20.950Z,96120.00
2023-04-11T14:08:24.026Z,96092.00
2023-04-11T14:12:29.613Z,96080.00
2023-04-11T14:16:32.459Z,96074.00
2023-04-11T14:20:39.586Z,96072.00
2023-04-11T14:24:50.037Z,96062.00
2023-04-11T14:28:52.822Z,96063.00
2023-04-11T14:32:59.209Z,96070.00
2023-04-11T14:37:03.892Z,96068.00
2023-04-11T14:41:08.827Z,96060.00
2023-04-11T14:45:13.242Z,96054.00
2023-04-11T14:49:19.846Z,96061.00
2023-04-11T14:53:28.328Z,96063.00
2023-04-11T14:57:45.697Z,96068.00
2023-04-11T15:01:51.686Z,96075.00
2023-04-11T15:05:59.350Z,96054.00
2023-04-11T15:10:08.233Z,96053.00
2023-04-11T15:14:11.111Z,96054.00
2023-04-11T15:18:24.910Z,96050.00
2023-04-11T15:22:29.638Z,96041.00
2023-04-11T15:26:35.873Z,96033.00
2023-04-11T15:30:47.275Z,96049.00
2023-04-11T15:34:55.065Z,96058.00
2023-04-11T15:38:58.190Z,96047.00
2023-04-11T15:43:02.441Z,96048.00
2023-04-11T15:47:07.428Z,96061.00
2023-04-11T15:51:14.145Z,96059.00
2023-04-11T15:55:19.480Z,96057.00
2023-04-11T15:59:25.031Z,96061.00
2023-04-11T16:03:31.685Z,96062.00
2023-04-11T16:07:34.752Z,96050.00
2023-04-11T16:11:38.700Z,96043.00
2023-04-11T16:15:44.669Z,96045.00
2023-04-11T16:19:47.655Z,96048.00
2023-04-11T16:23:53.568Z,96064.00
2023-04-11T16:27:56.906Z,96073.00
2023-04-11T16:32:05.342Z,96075.00
2023-04-11T16:36:09.428Z,96071.00
2023-04-11T16:40:12.360Z,96073.00
2023-04-11T16:44:18.170Z,96079.00
2023-04-11T16:48:26.110Z,96071.00
2023-04-11T16:52:29.504Z,96081.00
2023-04-11T16:56:34.254Z,96078.00
2023-04-11T17:00:40.827Z,96085.00
2023-04-11T17:04:45.002Z,96078.00
2023-04-11T17:08:47.898Z,96067.00
2023-04-11T17:12:51.091Z,96072.00
2023-04-11T17:16:55.653Z,96079.00
2023-04-11T17:21:00.799Z,96075.00
2023-04-11T17:25:07.626Z,96080.00
2023-04-11T17:29:11.024Z,96084.00
2023-04-11T17:33:14.469Z,96074.00
2023-04-11T17:37:22.228Z,96085.00
2023-04-11T17:41:25.015Z,96088.00
2023-04-11T17:45:28.148Z,96097.00
2023-04-11T17:49:33.619Z,96099.00
2023-04-11T17:53:38.173Z,96094.00
2023-04-11T17:57:41.827Z,96098.00
2023-04-11T18:01:47.288Z,96099.00
2023-04-11T18:05:51.974Z,96099.00
2023-04-11T18:09:59.000Z,96105.00
2023-04-11T18:14:02.874Z,96101.00
2023-04-11T18:18:09.615Z,96108.00
2023-04-11T18:22:12.687Z,96107.00
2023-04-11T18:26:19.882Z,96112.00
2023-04-11T18:30:24.837Z,96112.00
2023-04-11T18:34:27.750Z,96114.00
2023-04-11T18:38:32.701Z,96113.00
2023-04-11T18:42:39.139Z,96121.00
2023-04-11T18:46:47.074Z,96113.00
2023-04-11T18:51:11.064Z,96118.00
2023-04-11T18:55:16.856Z,96120.00
2023-04-11T18:59:26.773Z,96124.00
2023-04-11T19:03:34.541Z,96137.00
2023-04-11T19:07:38.002Z,96139.00
2023-04-11T19:11:42.761Z,96142.00
2023-04-11T19:15:47.369Z,96132.00
2023-04-11T19:19:52.470Z,96123.00
2023-04-11T19:23:58.524Z,96129.00
2023-04-11T19:28:03.924Z,96127.00
2023-04-11T19:32:09.596Z,96125.00
2023-04-11T19:36:17.714Z,96132.00
2023-04-11T19:40:23.397Z,96131.00
2023-04-11T19:44:26.625Z,96120.00
2023-04-11T19:48:31.450Z,96125.00
2023-04-11T19:52:34.476Z,96117.00
2023-04-11T19:56:39.208Z,96118.00
2023-04-11T20:00:42.098Z,96099.00
2023-04-11T20:04:58.219Z,96105.00
2023-04-11T20:09:01.184Z,96094.00
2023-04-11T20:13:04.318Z,96096.00
2023-04-11T20:17:08.576Z,96095.00
2023-04-11T20:21:15.426Z,96087.00
2023-04-11T20:25:20.088Z,96083.00
2023-04-11T20:29:24.691Z,96078.00
2023-04-11T20:33:28.879Z,96071.00
2023-04-11T20:37:35.108Z,96084.00
2023-04-11T20:41:40.689Z,96087.00
2023-04-11T20:45:45.899Z,96092.00
2023-04-11T20:49:49.657Z,96075.00
2023-04-11T20:53:53.886Z,96080.00
2023-04-11T20:57:59.160Z,96080.00
2023-04-11T21:02:02.248Z,96068.00
2023-04-11T21:06:07.397Z,96071.00
2023-04-11T21:10:14.498Z,96068.00
2023-04-11T21:14:18.565Z,96063.00
2023-04-11T21:18:21.350Z,96064.00
2023-04-11T21:22:30.370Z,96058.00
2023-04-11T21:26:34.628Z,96062.00
2023-04-11T21:30:39.493Z,96062.00
2023-04-11T21:34:43.959Z,96065.00
2023-04-11T21:38:46.734Z,96059.00
2023-04-11T21:42:50.964Z,96048.00
2023-04-11T21:46:53.814Z,96051.00
2023-04-11T21:50:56.603Z,96044.00
2023-04-11T21:55:01.120Z,96047.00
2023-04-11T21:59:06.483Z,96033.00
2023-04-11T22:03:12.015Z,96023.00
2023-04-11T22:07:15.918Z,96023.00
2023-04-11T22:11:19.609Z,96025.00
2023-04-11T22:15:24.156Z,96014.00
2023-04-11T22:19:31.293Z,96027.00
2023-04-11T22:23:35.905Z,96021.00
2023-04-11T22:27:39.014Z,96026.00
2023-04-11T22:31:44.613Z,96020.00
2023-04-11T22:35:48.189Z,96011.00
2023-04-11T22:39:51.730Z,96006.00
2023-04-11T22:44:00.392Z,96006.00
2023-04-11T22:48:07.240Z,95998.00
2023-04-11T22:52:22.689Z,96004.00
2023-04-11T22:56:28.312Z,95990.00
2023-04-11T23:00:40.838Z,95983.00
2023-04-11T23:04:45.134Z,95970.00
2023-04-11T23:08:48.016Z,95966.00
2023-04-11T23:12:53.687Z,95959.00
2023-04-11T23:17:01.425Z,95964.00
2023-04-11T23:21:06.080Z,95943.00
2023-04-11T23:25:10.869Z,95946.00
2023-04-11T23:29:16.278Z,95940.00
2023-04-11T23:33:19.573Z,95925.00
2023-04-11T23:37:24.352Z,95927.00
2023-04-11T23:41:29.254Z,95929.00
2023-04-11T23:45:36.340Z,95917.00
2023-04-11T23:49:39.206Z,95914.00
2023-04-11T23:53:50.937Z,95909.00
2023-04-11T23:57:55.248Z,95915.00
